Time;durP1;ratioP1;P1;durP2;ratioP2;P2;SDS_P1;SDS_P2;PMS_P1;PMS_P2;Temp;Humidity;BMP_temperature;BMP_pressure;BME280_temperature;BME280_humidity;BME280_pressure;Samples;Min_cycle;Max_cycle;Signal;HPM_P1;HPM_P2
2023/02/07 20:04:53;;;;;;;7.82;5.20;;;22.40;32.80;;;;;;5116082;27;20486;-69
2023/02/07 20:07:22;;;;;;;3.08;2.78;;;22.30;31.20;;;;;;5113243;28;20094;-67
2023/02/07 20:09:51;;;;;;;5.53;2.55;;;22.00;30.80;;;;;;5112849;28;20082;-68
2023/02/07 20:12:17;;;;;;;1.00;0.50;;;22.20;31.40;;;;;;5108391;27;20464;-69
2023/02/07 20:14:43;;;;;;;2.50;0.50;;;22.20;31.40;;;;;;5106563;27;20128;-67
2023/02/07 20:17:10;;;;;;;6.80;6.30;;;22.10;32.10;;;;;;5108577;28;20536;-68
2023/02/07 20:19:37;;;;;;;3.30;0.50;;;22.30;31.60;;;;;;5113860;27;20564;-71
2023/02/07 20:22:03;;;;;;;2.72;0.98;;;22.40;30.00;;;;;;5111127;28;20072;-68
2023/02/07 20:24:30;;;;;;;4.65;0.80;;;22.40;30.10;;;;;;5113807;27;20425;-69
2023/02/07 20:26:56;;;;;;;5.70;5.30;;;22.60;30.30;;;;;;5104768;28;20068;-69
2023/02/07 20:29:23;;;;;;;2.50;0.85;;;22.50;30.10;;;;;;5104894;28;20094;-70
2023/02/07 20:31:49;;;;;;;2.58;0.88;;;22.20;30.40;;;;;;5105799;28;20591;-70
2023/02/07 20:34:16;;;;;;;5.30;0.80;;;22.40;30.90;;;;;;5109184;27;20071;-68
2023/02/07 20:36:45;;;;;;;3.95;0.73;;;22.40;30.80;;;;;;5102993;28;20069;-72
2023/02/07 20:39:17;;;;;;;8.80;0.80;;;22.50;30.50;;;;;;5101506;28;20379;-68
2023/02/07 20:41:45;;;;;;;4.78;0.80;;;22.70;30.60;;;;;;5103700;28;20074;-68
2023/02/07 20:44:15;;;;;;;7.85;0.60;;;22.70;31.10;;;;;;5104583;28;20113;-69
2023/02/07 20:46:45;;;;;;;1.33;0.43;;;22.50;30.20;;;;;;5109953;28;20219;-69
2023/02/07 20:49:15;;;;;;;2.53;0.60;;;22.50;30.30;;;;;;5101757;28;20090;-68
2023/02/07 20:51:43;;;;;;;6.90;0.60;;;22.80;30.70;;;;;;5110692;28;20628;-67
2023/02/07 20:54:11;;;;;;;7.75;0.98;;;22.90;30.50;;;;;;5106366;28;20084;-69
2023/02/07 20:56:37;;;;;;;0.68;0.30;;;23.00;30.20;;;;;;5102334;28;20079;-67
2023/02/07 20:59:04;;;;;;;1.70;1.00;;;22.80;30.00;;;;;;5113885;28;20590;-68
2023/02/07 21:01:32;;;;;;;1.25;0.60;;;23.00;30.30;;;;;;5111631;28;20079;-71
2023/02/07 21:04:01;;;;;;;1.67;0.50;;;22.80;29.70;;;;;;5111392;27;20114;-69
2023/02/07 21:06:28;;;;;;;1.40;0.57;;;23.00;29.30;;;;;;5105879;28;20083;-69
2023/02/07 21:09:00;;;;;;;2.83;0.60;;;23.00;29.70;;;;;;5113451;28;20155;-69
2023/02/07 21:11:50;;;;;;;3.20;0.88;;;22.70;29.00;;;;;;5115453;28;20069;-69
2023/02/07 21:14:29;;;;;;;2.78;0.63;;;22.80;29.60;;;;;;5108028;28;20082;-71
2023/02/07 21:17:00;;;;;;;9.57;0.70;;;22.60;30.00;;;;;;5092816;28;20133;-69
2023/02/07 21:19:27;;;;;;;8.30;1.52;;;22.60;30.60;;;;;;5098600;28;20148;-70
2023/02/07 21:21:54;;;;;;;2.50;0.88;;;22.80;30.30;;;;;;5097797;28;20132;-69
2023/02/07 21:24:21;;;;;;;2.80;0.60;;;22.90;30.00;;;;;;5099590;27;20089;-69
2023/02/07 21:26:48;;;;;;;4.18;0.60;;;22.40;46.00;;;;;;5097719;28;20154;-70
2023/02/07 21:29:15;;;;;;;10.88;4.38;;;23.40;45.30;;;;;;5096789;28;20026;-72
2023/02/07 21:31:42;;;;;;;1.30;0.50;;;23.00;30.00;;;;;;5095869;28;20020;-67
2023/02/07 21:34:08;;;;;;;3.40;0.52;;;22.90;29.80;;;;;;5094874;28;20113;-68
2023/02/07 21:36:38;;;;;;;4.25;0.50;;;23.00;55.10;;;;;;5098676;28;20031;-68
2023/02/07 21:39:09;;;;;;;1.40;0.45;;;22.70;50.30;;;;;;5095360;28;20024;-69
2023/02/07 21:41:40;;;;;;;3.88;0.63;;;22.60;30.90;;;;;;5093557;28;20027;-69
2023/02/07 21:44:08;;;;;;;3.33;0.57;;;22.30;53.30;;;;;;5100474;28;20493;-70
2023/02/07 21:46:38;;;;;;;5.50;0.60;;;22.70;30.80;;;;;;5098904;28;20461;-70
2023/02/07 21:49:07;;;;;;;2.28;0.70;;;22.80;30.80;;;;;;5095291;28;20074;-71
2023/02/07 21:51:35;;;;;;;3.22;0.55;;;22.80;50.50;;;;;;5095857;28;20536;-69
2023/02/07 21:54:03;;;;;;;1.92;0.50;;;22.80;29.60;;;;;;5102741;28;20024;-69
2023/02/07 21:56:32;;;;;;;29.65;1.75;;;23.00;47.30;;;;;;5094597;28;20028;-69
2023/02/07 21:59:00;;;;;;;44.45;2.05;;;22.70;30.10;;;;;;5095046;28;20376;-70
2023/02/07 22:01:28;;;;;;;20.55;2.67;;;22.70;30.10;;;;;;5101017;28;20037;-68
2023/02/07 22:03:57;;;;;;;6.35;0.80;;;22.80;54.50;;;;;;5093654;28;20077;-69
2023/02/07 22:06:25;;;;;;;1.85;0.90;;;22.80;30.70;;;;;;5096036;28;20020;-70
2023/02/07 22:08:57;;;;;;;3.15;1.80;;;22.90;30.90;;;;;;5094434;28;20024;-67
2023/02/07 22:11:27;;;;;;;1.55;0.50;;;22.90;30.50;;;;;;5099049;28;20088;-69
2023/02/07 22:13:54;;;;;;;7.60;1.30;;;22.80;29.90;;;;;;5099053;28;20045;-69
2023/02/07 22:16:23;;;;;;;3.15;0.40;;;23.20;30.10;;;;;;5095864;28;20045;-67
2023/02/07 22:18:52;;;;;;;4.18;0.80;;;23.20;29.80;;;;;;5094730;28;20040;-68
2023/02/07 22:21:24;;;;;;;1.85;0.73;;;23.10;30.00;;;;;;5094868;28;20042;-69
2023/02/07 22:23:51;;;;;;;36.67;2.55;;;23.10;30.00;;;;;;5094986;28;20149;-68
2023/02/07 22:27:52;;;;;;;147.55;7.40;;;23.10;30.00;;;;;;5052908;27;2096610;-56
2023/02/07 22:30:19;;;;;;;8.43;5.63;;;22.80;30.90;;;;;;5106036;28;20165;-58
2023/02/07 22:32:45;;;;;;;96.80;5.28;;;22.90;30.80;;;;;;5105254;28;20071;-57
2023/02/07 22:35:12;;;;;;;5.80;0.70;;;22.90;31.80;;;;;;5105636;28;20096;-59
2023/02/07 22:37:38;;;;;;;1.55;0.45;;;22.70;33.20;;;;;;5105233;28;20067;-59
2023/02/07 22:40:05;;;;;;;2.10;0.55;;;22.60;32.30;;;;;;5105769;28;20153;-60
2023/02/07 22:42:33;;;;;;;10.15;1.33;;;22.50;31.10;;;;;;5103859;28;20065;-59
2023/02/07 22:45:00;;;;;;;1.10;0.43;;;22.50;36.80;;;;;;5105080;28;20549;-61
2023/02/07 22:47:26;;;;;;;7.78;6.93;;;22.40;31.70;;;;;;5104722;28;20084;-57
2023/02/07 22:49:53;;;;;;;2.72;0.60;;;22.50;35.60;;;;;;5106108;28;20473;-61
2023/02/07 22:52:19;;;;;;;4.93;1.00;;;22.60;33.50;;;;;;5105325;28;20160;-58
2023/02/07 22:54:45;;;;;;;3.63;0.70;;;22.70;32.70;;;;;;5104665;28;20082;-58
2023/02/07 22:57:15;;;;;;;9.00;0.93;;;23.00;33.50;;;;;;5104890;28;20519;-60
2023/02/07 22:59:41;;;;;;;2.70;0.60;;;22.90;31.00;;;;;;5105139;28;20126;-60
2023/02/07 23:02:08;;;;;;;2.92;0.70;;;22.90;30.90;;;;;;5104531;28;20149;-61
2023/02/07 23:04:34;;;;;;;2.38;0.55;;;22.70;30.80;;;;;;5085610;28;20086;-60
2023/02/07 23:07:00;;;;;;;1.75;0.40;;;22.60;30.20;;;;;;5084180;28;20090;-62
2023/02/07 23:09:27;;;;;;;0.70;0.40;;;22.60;29.70;;;;;;5084756;28;20129;-59
2023/02/07 23:11:53;;;;;;;2.47;0.60;;;22.50;30.10;;;;;;5083956;28;20120;-56
2023/02/07 23:14:20;;;;;;;2.10;0.70;;;22.40;29.90;;;;;;5080729;28;20095;-62
2023/02/07 23:16:46;;;;;;;2.72;0.63;;;22.40;29.90;;;;;;5084565;28;20602;-58
2023/02/07 23:19:15;;;;;;;3.60;0.60;;;22.30;30.10;;;;;;5084645;28;20084;-61
2023/02/07 23:21:43;;;;;;;1.88;0.40;;;22.20;29.90;;;;;;5083308;28;20067;-61
2023/02/07 23:24:13;;;;;;;5.82;0.60;;;22.00;29.90;;;;;;5083984;28;20101;-62
2023/02/07 23:26:40;;;;;;;2.50;0.98;;;22.00;29.90;;;;;;5082709;28;20108;-60
2023/02/07 23:29:06;;;;;;;0.52;0.52;;;22.00;30.00;;;;;;5083380;28;20153;-59
2023/02/07 23:31:33;;;;;;;2.42;0.55;;;21.90;30.00;;;;;;5085834;28;20507;-57
2023/02/07 23:34:00;;;;;;;7.13;0.82;;;21.80;30.20;;;;;;5083405;28;20084;-59
2023/02/07 23:36:27;;;;;;;2.42;1.50;;;21.80;30.80;;;;;;5083991;28;20113;-55
2023/02/07 23:38:53;;;;;;;6.05;0.95;;;21.80;30.00;;;;;;5071423;28;20166;-61
2023/02/07 23:41:19;;;;;;;6.43;1.00;;;21.60;29.80;;;;;;5070494;28;20488;-61
2023/02/07 23:43:46;;;;;;;5.88;0.50;;;21.60;29.60;;;;;;5069897;28;20130;-59
2023/02/07 23:46:13;;;;;;;9.60;8.80;;;21.40;30.00;;;;;;5070305;28;20080;-58
2023/02/07 23:48:40;;;;;;;4.32;0.90;;;21.40;29.80;;;;;;5070482;28;20102;-60
2023/02/07 23:51:06;;;;;;;1.00;0.90;;;21.40;30.00;;;;;;5069591;28;20128;-61
2023/02/07 23:53:33;;;;;;;10.10;6.03;;;21.30;30.00;;;;;;5071277;28;20072;-52
2023/02/07 23:56:00;;;;;;;5.15;1.48;;;21.20;30.50;;;;;;5070246;28;20080;-57
2023/02/07 23:58:27;;;;;;;3.15;1.80;;;21.30;30.50;;;;;;5069741;28;20068;-54
